Time;durP1;ratioP1;P1;durP2;ratioP2;P2;SDS_P1;SDS_P2;PMS_P1;PMS_P2;Temp;Humidity;BMP_temperature;BMP_pressure;BME280_temperature;BME280_humidity;BME280_pressure;Samples;Min_cycle;Max_cycle;Signal;HPM_P1;HPM_P2
2021/11/26 00:01:04;;;;;;;2.90;2.65;;;;;;;;;;4955298;29;20035;-82
2021/11/26 00:03:30;;;;;;;3.05;2.85;;;;;;;;;;4954877;28;20058;-81
2021/11/26 00:05:56;;;;;;;2.22;2.13;;;;;;;;;;4955771;28;20071;-80
2021/11/26 00:08:22;;;;;;;2.35;2.25;;;;;;;;;;4956015;28;20043;-81
2021/11/26 00:10:47;;;;;;;3.38;3.17;;;;;;;;;;4956025;29;20074;-80
2021/11/26 00:13:13;;;;;;;2.63;2.53;;;;;;;;;;4955789;28;20047;-80
2021/11/26 00:15:42;;;;;;;2.92;2.83;;;;;;;;;;4955718;28;20791;-81
2021/11/26 00:18:16;;;;;;;2.50;2.40;;;;;;;;;;4956336;28;20406;-81
2021/11/26 00:20:43;;;;;;;2.65;2.45;;;;;;;;;;4956045;28;20050;-82
2021/11/26 00:23:08;;;;;;;2.78;2.63;;;;;;;;;;4955497;28;20047;-80
2021/11/26 00:25:35;;;;;;;3.55;3.30;;;;;;;;;;4955114;28;20062;-81
2021/11/26 00:28:01;;;;;;;2.55;2.45;;;;;;;;;;4955096;29;20086;-81
2021/11/26 00:30:27;;;;;;;2.28;2.17;;;;;;;;;;4955714;28;20075;-81
2021/11/26 00:32:52;;;;;;;2.20;2.10;;;;;;;;;;4955310;29;20047;-81
2021/11/26 00:35:18;;;;;;;2.88;2.67;;;;;;;;;;4955518;28;20591;-81
2021/11/26 00:37:44;;;;;;;1.60;1.50;;;;;;;;;;4955101;29;20130;-80
2021/11/26 00:40:10;;;;;;;3.13;3.03;;;;;;;;;;4955305;28;20780;-80
2021/11/26 00:42:36;;;;;;;2.92;2.08;;;;;;;;;;4955065;28;20540;-81
2021/11/26 00:45:02;;;;;;;2.45;2.28;;;;;;;;;;4954230;28;20043;-81
2021/11/26 00:47:28;;;;;;;2.35;2.25;;;;;;;;;;4954814;28;20051;-81
2021/11/26 00:49:53;;;;;;;2.40;2.30;;;;;;;;;;4955381;28;20413;-81
2021/11/26 00:52:19;;;;;;;2.97;2.78;;;;;;;;;;4955230;28;20039;-81
2021/11/26 00:54:45;;;;;;;2.60;2.47;;;;;;;;;;4955034;29;20039;-81
2021/11/26 00:57:11;;;;;;;2.28;2.17;;;;;;;;;;4954679;29;20051;-81
2021/11/26 00:59:38;;;;;;;2.47;2.38;;;;;;;;;;4953525;28;20055;-81
2021/11/26 01:02:06;;;;;;;2.67;2.50;;;;;;;;;;4955277;28;20154;-80
2021/11/26 01:04:32;;;;;;;2.60;2.50;;;;;;;;;;4955201;28;20045;-81
2021/11/26 01:06:58;;;;;;;2.72;2.63;;;;;;;;;;4953816;28;20043;-81
2021/11/26 01:09:24;;;;;;;3.22;3.03;;;;;;;;;;4955265;28;20041;-80
2021/11/26 01:11:49;;;;;;;2.85;2.75;;;;;;;;;;4955450;29;20043;-81
2021/11/26 01:14:15;;;;;;;3.30;3.10;;;;;;;;;;4954227;28;20050;-81
2021/11/26 01:16:41;;;;;;;2.83;2.63;;;;;;;;;;4954869;29;20035;-81
2021/11/26 01:19:06;;;;;;;2.00;1.90;;;;;;;;;;4954761;28;20136;-80
2021/11/26 01:21:32;;;;;;;3.72;3.42;;;;;;;;;;4954668;28;20043;-81
2021/11/26 01:23:57;;;;;;;3.75;3.50;;;;;;;;;;4954538;29;20044;-81
2021/11/26 01:26:23;;;;;;;3.25;3.05;;;;;;;;;;4954741;28;20039;-80
2021/11/26 01:28:50;;;;;;;3.97;3.70;;;;;;;;;;4954580;29;20043;-81
2021/11/26 01:31:16;;;;;;;3.35;3.15;;;;;;;;;;4953517;28;20047;-80
2021/11/26 01:33:42;;;;;;;2.80;2.70;;;;;;;;;;4954176;29;20043;-81
2021/11/26 01:36:08;;;;;;;4.55;4.25;;;;;;;;;;4954193;29;20180;-80
2021/11/26 01:38:33;;;;;;;3.53;3.28;;;;;;;;;;4954058;28;20043;-79
2021/11/26 01:41:00;;;;;;;3.45;3.15;;;;;;;;;;4954040;28;20039;-81
2021/11/26 01:43:26;;;;;;;3.55;3.17;;;;;;;;;;4936999;29;20493;-81
2021/11/26 01:46:06;;;;;;;3.35;3.15;;;;;;;;;;4936624;29;20070;-80
2021/11/26 01:48:31;;;;;;;2.97;2.78;;;;;;;;;;4954347;29;20043;-80
2021/11/26 01:50:57;;;;;;;4.07;3.80;;;;;;;;;;4936733;29;20047;-79
2021/11/26 01:53:22;;;;;;;3.75;3.47;;;;;;;;;;4954373;28;20043;-81
2021/11/26 01:55:49;;;;;;;3.53;3.22;;;;;;;;;;4953173;29;20075;-79
2021/11/26 01:58:14;;;;;;;3.22;2.83;;;;;;;;;;4954034;29;20039;-81
2021/11/26 02:00:43;;;;;;;2.80;2.15;;;;;;;;;;4952535;28;20594;-80
2021/11/26 02:03:09;;;;;;;4.18;3.88;;;;;;;;;;4953121;28;20690;-80
2021/11/26 02:05:35;;;;;;;3.42;3.13;;;;;;;;;;4953563;29;20036;-81
2021/11/26 02:08:00;;;;;;;3.42;3.15;;;;;;;;;;4953404;29;20051;-79
2021/11/26 02:10:26;;;;;;;2.97;2.78;;;;;;;;;;4953437;28;20039;-80
2021/11/26 02:12:52;;;;;;;2.47;2.28;;;;;;;;;;4953649;28;20497;-80
2021/11/26 02:15:24;;;;;;;3.25;2.95;;;;;;;;;;4953647;28;20047;-80
2021/11/26 02:17:51;;;;;;;3.17;2.90;;;;;;;;;;4952978;28;20102;-81
2021/11/26 02:20:19;;;;;;;3.78;3.58;;;;;;;;;;4952542;28;20042;-81
2021/11/26 02:22:46;;;;;;;3.60;3.30;;;;;;;;;;4953679;28;20047;-81
2021/11/26 02:25:12;;;;;;;4.00;3.70;;;;;;;;;;4953125;29;20048;-81
2021/11/26 02:27:38;;;;;;;4.03;3.67;;;;;;;;;;4935993;28;20047;-81
2021/11/26 02:30:15;;;;;;;3.55;3.33;;;;;;;;;;4953154;28;20078;-80
2021/11/26 02:32:50;;;;;;;3.42;3.22;;;;;;;;;;4936009;29;20146;-82
2021/11/26 02:35:16;;;;;;;4.47;4.00;;;;;;;;;;4953259;28;20127;-81
2021/11/26 02:37:42;;;;;;;4.53;4.22;;;;;;;;;;4952270;29;20146;-80
2021/11/26 02:40:09;;;;;;;4.57;4.18;;;;;;;;;;4953103;28;20456;-80
2021/11/26 02:42:36;;;;;;;4.15;3.85;;;;;;;;;;4952359;29;20047;-81
2021/11/26 02:45:07;;;;;;;4.63;4.03;;;;;;;;;;4951111;28;20519;-81
2021/11/26 02:47:33;;;;;;;4.97;3.22;;;;;;;;;;4952832;28;20134;-80
2021/11/26 02:49:58;;;;;;;4.88;4.47;;;;;;;;;;4952940;28;20520;-80
2021/11/26 02:52:24;;;;;;;4.25;3.83;;;;;;;;;;4935550;29;20043;-81
2021/11/26 02:54:52;;;;;;;4.65;3.58;;;;;;;;;;4952970;29;20413;-81
2021/11/26 02:57:18;;;;;;;5.32;4.78;;;;;;;;;;4952760;28;20078;-81
2021/11/26 02:59:43;;;;;;;5.65;4.63;;;;;;;;;;4953258;29;20125;-80
2021/11/26 03:02:09;;;;;;;4.93;4.53;;;;;;;;;;4952661;28;20800;-81
2021/11/26 03:04:34;;;;;;;8.65;7.25;;;;;;;;;;4952824;28;20490;-80
2021/11/26 03:07:02;;;;;;;5.97;4.60;;;;;;;;;;4952963;28;20047;-81
2021/11/26 03:09:27;;;;;;;6.32;4.95;;;;;;;;;;4952426;28;20102;-80
2021/11/26 03:11:53;;;;;;;7.07;6.03;;;;;;;;;;4952271;28;20088;-81
2021/11/26 03:14:18;;;;;;;7.15;6.07;;;;;;;;;;4951287;28;20043;-82
2021/11/26 03:16:43;;;;;;;7.15;5.47;;;;;;;;;;4952699;28;20063;-81
2021/11/26 03:19:09;;;;;;;8.82;6.03;;;;;;;;;;4952872;28;20110;-81
2021/11/26 03:21:34;;;;;;;7.68;6.35;;;;;;;;;;4953307;28;20050;-80
2021/11/26 03:24:00;;;;;;;8.40;4.82;;;;;;;;;;4952723;28;20156;-81
2021/11/26 03:26:25;;;;;;;7.90;6.50;;;;;;;;;;4953198;28;20043;-83
2021/11/26 03:28:51;;;;;;;8.65;6.45;;;;;;;;;;4953416;28;20043;-82
2021/11/26 03:31:16;;;;;;;9.55;6.88;;;;;;;;;;4956213;28;20086;-82
2021/11/26 03:33:42;;;;;;;10.68;6.75;;;;;;;;;;4956664;28;20050;-81
2021/11/26 03:36:07;;;;;;;9.02;6.15;;;;;;;;;;4955630;28;20142;-81
2021/11/26 03:38:33;;;;;;;8.48;6.82;;;;;;;;;;4955928;28;20027;-82
2021/11/26 03:40:58;;;;;;;8.73;6.43;;;;;;;;;;4955888;28;20047;-81
2021/11/26 03:43:24;;;;;;;10.07;7.25;;;;;;;;;;4955343;28;20493;-81
2021/11/26 03:45:49;;;;;;;7.95;5.90;;;;;;;;;;4957961;28;20043;-81
2021/11/26 03:48:15;;;;;;;11.13;7.55;;;;;;;;;;4955567;28;20051;-82
2021/11/26 03:50:41;;;;;;;10.15;7.57;;;;;;;;;;4955954;28;20066;-81
2021/11/26 03:53:06;;;;;;;8.13;6.10;;;;;;;;;;4954888;28;20047;-82
2021/11/26 03:55:32;;;;;;;8.75;6.50;;;;;;;;;;4955263;28;20110;-82
2021/11/26 03:57:58;;;;;;;10.77;7.65;;;;;;;;;;4955606;29;20062;-81
2021/11/26 04:00:24;;;;;;;10.68;7.60;;;;;;;;;;4954355;29;20047;-82
2021/11/26 04:02:51;;;;;;;11.13;7.30;;;;;;;;;;4955209;28;20047;-82
2021/11/26 04:05:16;;;;;;;8.88;7.90;;;;;;;;;;4955764;28;20059;-81
2021/11/26 04:07:43;;;;;;;10.05;7.47;;;;;;;;;;4955211;29;20102;-80
2021/11/26 04:10:10;;;;;;;10.15;6.90;;;;;;;;;;4955325;29;20517;-81
2021/11/26 04:12:35;;;;;;;10.13;7.32;;;;;;;;;;4954217;28;20043;-81
2021/11/26 04:15:06;;;;;;;10.65;6.93;;;;;;;;;;4954234;28;20099;-78
2021/11/26 04:17:33;;;;;;;9.40;6.22;;;;;;;;;;4937756;29;20678;-79
2021/11/26 04:19:58;;;;;;;9.63;7.47;;;;;;;;;;4936648;29;20675;-80
2021/11/26 04:22:24;;;;;;;10.75;7.55;;;;;;;;;;4954032;28;20071;-79
2021/11/26 04:24:49;;;;;;;9.35;7.68;;;;;;;;;;4954044;29;20134;-80
2021/11/26 04:27:15;;;;;;;11.15;7.30;;;;;;;;;;4954050;28;20523;-82
2021/11/26 04:29:40;;;;;;;11.27;7.82;;;;;;;;;;4955123;29;20090;-81
2021/11/26 04:32:07;;;;;;;13.43;7.65;;;;;;;;;;4953783;28;20040;-80
2021/11/26 04:34:33;;;;;;;11.32;7.32;;;;;;;;;;4954371;29;20509;-80
2021/11/26 04:36:59;;;;;;;11.93;8.77;;;;;;;;;;4953724;28;20043;-80
2021/11/26 04:39:24;;;;;;;13.45;8.73;;;;;;;;;;4953666;28;20497;-79
2021/11/26 04:41:50;;;;;;;15.15;8.82;;;;;;;;;;4955947;28;20095;-80
2021/11/26 04:44:15;;;;;;;15.27;10.32;;;;;;;;;;4953583;28;20047;-79
2021/11/26 04:46:41;;;;;;;19.95;9.68;;;;;;;;;;4955503;28;20094;-80
2021/11/26 04:49:07;;;;;;;13.25;8.88;;;;;;;;;;4954045;28;20043;-81
2021/11/26 04:51:34;;;;;;;18.85;12.13;;;;;;;;;;4953561;28;20452;-81
2021/11/26 04:53:59;;;;;;;15.43;8.55;;;;;;;;;;4953671;28;20058;-80
2021/11/26 04:56:25;;;;;;;12.73;7.75;;;;;;;;;;4953562;28;20409;-81
2021/11/26 04:58:50;;;;;;;12.40;9.40;;;;;;;;;;4953910;28;20134;-81
2021/11/26 05:01:16;;;;;;;15.55;9.80;;;;;;;;;;4953725;28;20175;-80
2021/11/26 05:03:41;;;;;;;16.27;10.05;;;;;;;;;;4951246;28;20055;-81
2021/11/26 05:06:07;;;;;;;15.52;9.32;;;;;;;;;;4953094;28;20511;-82
2021/11/26 05:08:33;;;;;;;15.60;9.75;;;;;;;;;;4953062;29;20043;-80
2021/11/26 05:10:58;;;;;;;14.07;9.23;;;;;;;;;;4953375;29;20121;-81
2021/11/26 05:13:32;;;;;;;14.27;11.07;;;;;;;;;;4952447;28;20045;-81
2021/11/26 05:15:58;;;;;;;11.80;8.35;;;;;;;;;;4952836;28;20130;-80
2021/11/26 05:18:26;;;;;;;12.35;8.88;;;;;;;;;;4953246;28;20492;-81
2021/11/26 05:20:53;;;;;;;12.02;8.90;;;;;;;;;;4951018;28;20063;-79
2021/11/26 05:23:20;;;;;;;14.93;8.77;;;;;;;;;;4952330;28;20036;-80
2021/11/26 05:25:46;;;;;;;17.05;10.15;;;;;;;;;;4953347;28;20075;-78
2021/11/26 05:28:12;;;;;;;12.82;11.30;;;;;;;;;;4952777;28;20441;-79
2021/11/26 05:30:38;;;;;;;11.80;9.43;;;;;;;;;;4951793;28;20046;-79
2021/11/26 05:33:04;;;;;;;16.45;10.15;;;;;;;;;;4953170;28;20090;-80
2021/11/26 05:35:29;;;;;;;15.20;10.43;;;;;;;;;;4952677;28;20405;-79
2021/11/26 05:37:55;;;;;;;13.85;9.23;;;;;;;;;;4953177;28;20501;-78
2021/11/26 05:40:21;;;;;;;14.27;9.02;;;;;;;;;;4950840;28;20505;-79
2021/11/26 05:42:47;;;;;;;14.35;10.80;;;;;;;;;;4952673;28;20073;-78
2021/11/26 05:45:15;;;;;;;13.52;9.52;;;;;;;;;;4952396;28;20512;-79
2021/11/26 05:47:41;;;;;;;16.52;10.65;;;;;;;;;;4952346;28;20055;-79
2021/11/26 05:50:10;;;;;;;13.68;10.00;;;;;;;;;;4952779;28;20043;-79
2021/11/26 05:52:36;;;;;;;12.82;10.13;;;;;;;;;;4951424;28;20509;-78
2021/11/26 05:55:05;;;;;;;17.50;10.60;;;;;;;;;;4952371;28;20099;-78
2021/11/26 05:57:30;;;;;;;15.00;10.88;;;;;;;;;;4952641;28;20043;-78
2021/11/26 05:59:56;;;;;;;15.38;9.52;;;;;;;;;;4952110;28;20520;-78
2021/11/26 06:02:21;;;;;;;16.55;12.23;;;;;;;;;;4950599;28;20063;-78
2021/11/26 06:04:47;;;;;;;19.58;13.18;;;;;;;;;;4952459;28;20400;-79
2021/11/26 06:07:12;;;;;;;17.23;11.88;;;;;;;;;;4952101;28;20078;-77
2021/11/26 06:09:38;;;;;;;18.13;11.65;;;;;;;;;;4952255;28;20046;-79
2021/11/26 06:12:06;;;;;;;13.65;10.05;;;;;;;;;;4934292;28;20050;-77
2021/11/26 06:14:31;;;;;;;18.05;11.65;;;;;;;;;;4952186;28;20039;-79
2021/11/26 06:16:57;;;;;;;17.88;12.57;;;;;;;;;;4952089;28;20047;-78
2021/11/26 06:19:22;;;;;;;20.10;12.18;;;;;;;;;;4951880;28;20456;-77
2021/11/26 06:21:48;;;;;;;16.83;11.98;;;;;;;;;;4951810;28;20106;-78
2021/11/26 06:24:13;;;;;;;20.17;12.45;;;;;;;;;;4951947;28;20571;-78
2021/11/26 06:26:40;;;;;;;19.40;13.38;;;;;;;;;;4952007;28;20461;-79
2021/11/26 06:29:05;;;;;;;20.88;12.32;;;;;;;;;;4951924;28;20361;-79
2021/11/26 06:31:31;;;;;;;18.45;11.57;;;;;;;;;;4951853;28;20437;-79
2021/11/26 06:33:56;;;;;;;21.25;13.73;;;;;;;;;;4952182;28;20412;-78
2021/11/26 06:36:22;;;;;;;16.38;11.57;;;;;;;;;;4951974;28;20052;-79
2021/11/26 06:38:47;;;;;;;17.25;11.45;;;;;;;;;;4951630;28;20173;-79
2021/11/26 06:41:13;;;;;;;17.67;11.35;;;;;;;;;;4951838;28;20046;-78
2021/11/26 06:43:38;;;;;;;19.13;12.15;;;;;;;;;;4951396;28;20042;-79
2021/11/26 06:46:04;;;;;;;17.48;10.88;;;;;;;;;;4952081;28;20054;-78
2021/11/26 06:48:29;;;;;;;17.58;12.05;;;;;;;;;;4951727;28;20521;-77
2021/11/26 06:50:55;;;;;;;18.17;12.05;;;;;;;;;;4951867;28;20047;-79
2021/11/26 06:53:21;;;;;;;14.75;9.80;;;;;;;;;;4952054;28;20055;-78
2021/11/26 06:55:47;;;;;;;12.77;9.45;;;;;;;;;;4951864;28;20043;-78
2021/11/26 06:58:13;;;;;;;15.05;10.85;;;;;;;;;;4951640;28;20039;-78
2021/11/26 07:00:38;;;;;;;18.00;11.43;;;;;;;;;;4951610;28;20054;-78
2021/11/26 07:03:04;;;;;;;20.25;11.77;;;;;;;;;;4951673;28;20051;-78
2021/11/26 07:05:29;;;;;;;15.48;10.90;;;;;;;;;;4955253;28;20122;-79
2021/11/26 07:07:55;;;;;;;15.93;11.48;;;;;;;;;;4955259;28;20047;-78
2021/11/26 07:10:21;;;;;;;15.90;10.48;;;;;;;;;;4955450;28;20043;-79
2021/11/26 07:12:46;;;;;;;18.85;11.32;;;;;;;;;;4955171;28;20047;-78
2021/11/26 07:15:14;;;;;;;16.33;11.00;;;;;;;;;;4954744;28;20107;-79
2021/11/26 07:17:40;;;;;;;14.90;9.68;;;;;;;;;;4955140;28;20047;-77
2021/11/26 07:20:06;;;;;;;14.50;10.65;;;;;;;;;;4955016;28;20090;-78
2021/11/26 07:22:32;;;;;;;18.90;11.63;;;;;;;;;;4955367;28;20036;-77
2021/11/26 07:24:57;;;;;;;16.10;10.85;;;;;;;;;;4955271;28;20604;-79
2021/11/26 07:27:23;;;;;;;16.42;10.57;;;;;;;;;;4955096;28;20457;-79
2021/11/26 07:29:49;;;;;;;16.05;12.00;;;;;;;;;;4955120;28;20050;-78
2021/11/26 07:32:15;;;;;;;19.27;12.05;;;;;;;;;;4955014;28;20493;-78
2021/11/26 07:34:40;;;;;;;18.55;12.05;;;;;;;;;;4954708;28;20043;-79
2021/11/26 07:37:11;;;;;;;19.60;10.32;;;;;;;;;;4955269;28;20050;-79
2021/11/26 07:39:38;;;;;;;14.93;9.88;;;;;;;;;;4955723;28;20126;-79
2021/11/26 07:42:06;;;;;;;18.40;10.25;;;;;;;;;;4954526;28;20039;-78
2021/11/26 07:44:33;;;;;;;16.50;10.30;;;;;;;;;;4955053;28;20473;-79
2021/11/26 07:46:59;;;;;;;17.05;10.93;;;;;;;;;;4954480;28;20505;-78
2021/11/26 07:49:28;;;;;;;14.43;9.85;;;;;;;;;;4954823;28;20133;-79
2021/11/26 07:51:55;;;;;;;15.48;10.68;;;;;;;;;;4952535;28;20114;-79
2021/11/26 07:54:20;;;;;;;11.38;8.77;;;;;;;;;;4954677;28;20047;-77
2021/11/26 07:56:46;;;;;;;16.17;9.95;;;;;;;;;;4954555;28;20043;-79
2021/11/26 07:59:11;;;;;;;15.48;10.32;;;;;;;;;;4954969;28;20138;-79
2021/11/26 08:01:37;;;;;;;13.48;8.88;;;;;;;;;;4954679;28;20122;-80
2021/11/26 08:04:03;;;;;;;12.85;8.93;;;;;;;;;;4953848;28;20063;-80
2021/11/26 08:06:28;;;;;;;14.40;10.18;;;;;;;;;;4954925;28;20051;-78
2021/11/26 08:08:54;;;;;;;14.15;8.73;;;;;;;;;;4954486;28;20584;-78
2021/11/26 08:11:19;;;;;;;15.73;10.00;;;;;;;;;;4954157;28;20043;-78
2021/11/26 08:13:45;;;;;;;12.82;9.30;;;;;;;;;;4954453;28;20137;-78
2021/11/26 08:16:11;;;;;;;15.60;10.07;;;;;;;;;;4953826;28;20050;-78
2021/11/26 08:18:37;;;;;;;12.50;8.68;;;;;;;;;;4954691;28;20047;-77
2021/11/26 08:21:03;;;;;;;14.88;9.77;;;;;;;;;;4954704;28;20098;-79
2021/11/26 08:23:29;;;;;;;12.90;9.57;;;;;;;;;;4953853;28;20070;-78
2021/11/26 08:25:57;;;;;;;14.68;9.70;;;;;;;;;;4953678;28;20048;-78
2021/11/26 08:28:23;;;;;;;14.43;9.55;;;;;;;;;;4953919;28;20051;-78
2021/11/26 08:30:49;;;;;;;13.45;9.35;;;;;;;;;;4953597;28;20043;-78
2021/11/26 08:33:14;;;;;;;16.38;10.10;;;;;;;;;;4953598;28;20054;-77
2021/11/26 08:35:40;;;;;;;13.07;9.35;;;;;;;;;;4952806;28;20483;-82
2021/11/26 08:38:06;;;;;;;15.75;9.23;;;;;;;;;;4953781;28;20552;-79
2021/11/26 08:40:31;;;;;;;14.10;9.65;;;;;;;;;;4953708;28;20046;-79
2021/11/26 08:42:56;;;;;;;13.40;9.15;;;;;;;;;;4955552;28;20122;-78
2021/11/26 08:45:22;;;;;;;12.23;8.60;;;;;;;;;;4955143;28;20098;-80
2021/11/26 08:47:48;;;;;;;11.88;8.32;;;;;;;;;;4955914;28;20043;-78
2021/11/26 08:50:16;;;;;;;13.95;8.93;;;;;;;;;;4952898;28;20492;-78
2021/11/26 08:52:43;;;;;;;12.82;9.10;;;;;;;;;;4949062;28;20166;-77
2021/11/26 08:55:16;;;;;;;14.57;9.55;;;;;;;;;;4937655;29;20047;-80
2021/11/26 08:57:48;;;;;;;11.75;8.60;;;;;;;;;;4955081;28;20131;-76
2021/11/26 09:00:15;;;;;;;10.80;8.57;;;;;;;;;;4973151;28;20504;-78
2021/11/26 09:02:41;;;;;;;12.18;8.85;;;;;;;;;;4969259;28;20113;-79
2021/11/26 09:05:06;;;;;;;13.25;10.43;;;;;;;;;;4973303;28;20460;-77
2021/11/26 09:07:32;;;;;;;9.45;8.15;;;;;;;;;;4972019;28;20484;-79
2021/11/26 09:09:58;;;;;;;15.77;9.70;;;;;;;;;;4971601;28;20034;-77
2021/11/26 09:12:25;;;;;;;10.73;8.50;;;;;;;;;;4953889;28;20054;-78
2021/11/26 09:14:50;;;;;;;11.52;8.15;;;;;;;;;;4936164;29;20058;-77
2021/11/26 09:17:19;;;;;;;9.63;6.85;;;;;;;;;;4953892;28;20044;-79
2021/11/26 09:19:45;;;;;;;10.20;7.72;;;;;;;;;;4937132;28;20046;-79
2021/11/26 09:22:10;;;;;;;8.23;7.15;;;;;;;;;;4952711;28;20142;-79
2021/11/26 09:24:36;;;;;;;8.80;7.18;;;;;;;;;;4950044;28;20051;-78
2021/11/26 09:27:01;;;;;;;9.95;7.45;;;;;;;;;;4953427;28;20097;-77
2021/11/26 09:29:27;;;;;;;8.48;7.47;;;;;;;;;;4933300;29;20043;-78
2021/11/26 09:31:52;;;;;;;8.23;7.07;;;;;;;;;;4936849;29;20051;-78
2021/11/26 09:34:18;;;;;;;9.35;6.70;;;;;;;;;;4953426;28;20050;-79
2021/11/26 09:36:43;;;;;;;11.98;6.82;;;;;;;;;;4936096;29;20094;-78
2021/11/26 09:39:09;;;;;;;8.45;7.45;;;;;;;;;;4952440;28;20528;-79
2021/11/26 09:41:34;;;;;;;7.65;6.53;;;;;;;;;;4951251;28;20094;-78
2021/11/26 09:44:02;;;;;;;9.75;8.10;;;;;;;;;;4950335;28;20043;-79
2021/11/26 09:46:31;;;;;;;6.22;5.38;;;;;;;;;;4948292;28;20601;-79
2021/11/26 09:49:06;;;;;;;6.47;5.30;;;;;;;;;;5065145;28;20399;-78
2021/11/26 09:51:32;;;;;;;7.65;5.93;;;;;;;;;;5066327;28;20068;-80
2021/11/26 09:53:58;;;;;;;7.57;5.55;;;;;;;;;;5067032;28;20056;-80
2021/11/26 09:56:24;;;;;;;7.00;5.57;;;;;;;;;;5065862;28;20127;-79
2021/11/26 09:58:50;;;;;;;7.57;6.30;;;;;;;;;;5066348;28;20037;-80
2021/11/26 10:01:15;;;;;;;7.22;6.15;;;;;;;;;;5066233;28;20405;-81
2021/11/26 10:03:45;;;;;;;6.70;5.47;;;;;;;;;;5066552;28;20028;-79
2021/11/26 10:06:36;;;;;;;6.65;5.47;;;;;;;;;;5065459;28;20095;-81
2021/11/26 10:09:05;;;;;;;7.40;5.25;;;;;;;;;;5063978;28;20494;-79
2021/11/26 10:11:37;;;;;;;5.95;4.45;;;;;;;;;;5067512;28;20033;-80
2021/11/26 10:14:12;;;;;;;6.65;5.03;;;;;;;;;;5066455;28;20044;-81
2021/11/26 10:16:46;;;;;;;6.38;5.00;;;;;;;;;;5068423;28;20035;-80
2021/11/26 10:19:12;;;;;;;6.78;4.57;;;;;;;;;;5066051;28;20032;-81
2021/11/26 10:21:37;;;;;;;7.03;5.22;;;;;;;;;;5067143;28;20116;-81
2021/11/26 10:24:11;;;;;;;8.60;5.45;;;;;;;;;;5067723;28;20033;-80
2021/11/26 10:26:37;;;;;;;7.72;4.70;;;;;;;;;;5067388;28;20063;-79
2021/11/26 10:29:04;;;;;;;6.78;5.25;;;;;;;;;;5064230;28;20025;-82
2021/11/26 10:31:31;;;;;;;6.57;4.85;;;;;;;;;;5066075;28;20069;-81
2021/11/26 10:33:59;;;;;;;5.43;4.22;;;;;;;;;;5064604;28;20028;-80
2021/11/26 10:36:25;;;;;;;5.95;4.80;;;;;;;;;;5065322;28;20115;-81
2021/11/26 10:38:52;;;;;;;6.40;4.97;;;;;;;;;;5065487;28;20037;-81
2021/11/26 10:41:26;;;;;;;5.78;4.32;;;;;;;;;;5066105;28;20116;-79
2021/11/26 10:44:09;;;;;;;5.22;4.28;;;;;;;;;;5065806;28;20708;-80
2021/11/26 10:50:04;;;;;;;5.72;4.40;;;;;;;;;;5066724;28;20073;-80
2021/11/26 10:57:56;;;;;;;5.88;4.40;;;;;;;;;;5065953;28;20838;-81
2021/11/26 11:00:23;;;;;;;7.35;5.63;;;;;;;;;;5052343;28;20455;-80
2021/11/26 11:02:53;;;;;;;7.13;4.68;;;;;;;;;;5053168;28;20032;-80
2021/11/26 11:05:30;;;;;;;7.32;5.15;;;;;;;;;;5052711;28;20486;-80
2021/11/26 11:07:57;;;;;;;7.43;5.88;;;;;;;;;;5051401;28;20033;-79
2021/11/26 11:10:36;;;;;;;5.78;4.38;;;;;;;;;;5050944;28;20041;-79
2021/11/26 11:13:13;;;;;;;5.18;4.32;;;;;;;;;;5052299;28;20037;-80
2021/11/26 11:15:40;;;;;;;4.80;3.95;;;;;;;;;;5051197;28;20045;-80
2021/11/26 11:18:07;;;;;;;3.92;3.60;;;;;;;;;;5053422;28;20040;-81
2021/11/26 11:20:34;;;;;;;3.10;2.88;;;;;;;;;;5052763;28;20028;-79
2021/11/26 11:23:01;;;;;;;3.40;2.53;;;;;;;;;;5052495;28;20029;-81
2021/11/26 11:25:29;;;;;;;3.42;3.13;;;;;;;;;;5052990;28;20075;-81
2021/11/26 11:27:57;;;;;;;2.75;2.55;;;;;;;;;;5052327;28;20124;-82
2021/11/26 11:30:23;;;;;;;2.22;2.13;;;;;;;;;;5052004;28;20036;-81
2021/11/26 11:32:49;;;;;;;3.97;2.20;;;;;;;;;;5052614;28;20033;-82
2021/11/26 11:35:16;;;;;;;2.20;2.00;;;;;;;;;;5052434;28;20041;-81
2021/11/26 11:37:43;;;;;;;2.30;2.10;;;;;;;;;;5050540;28;20037;-81
2021/11/26 11:40:10;;;;;;;2.55;2.35;;;;;;;;;;5053441;28;20087;-82
2021/11/26 11:42:42;;;;;;;4.35;3.05;;;;;;;;;;5052934;28;20481;-80
2021/11/26 11:45:17;;;;;;;2.75;1.90;;;;;;;;;;5052723;28;20041;-80
2021/11/26 11:47:49;;;;;;;1.63;1.50;;;;;;;;;;5052353;28;20067;-80
2021/11/26 11:50:18;;;;;;;2.35;2.15;;;;;;;;;;5050416;28;20043;-80
2021/11/26 11:52:51;;;;;;;1.88;1.77;;;;;;;;;;5052608;28;20563;-81
2021/11/26 11:55:29;;;;;;;1.83;1.75;;;;;;;;;;5052303;28;20120;-80
2021/11/26 11:58:23;;;;;;;2.85;2.65;;;;;;;;;;5050701;28;20766;-80
2021/11/26 12:00:54;;;;;;;3.53;2.47;;;;;;;;;;5050607;28;20028;-80
2021/11/26 12:03:23;;;;;;;1.98;1.88;;;;;;;;;;5052032;28;20041;-79
2021/11/26 12:05:57;;;;;;;4.18;2.42;;;;;;;;;;5051121;28;20040;-80
2021/11/26 12:08:23;;;;;;;2.10;1.88;;;;;;;;;;5051472;28;20032;-81
2021/11/26 12:10:58;;;;;;;2.08;1.98;;;;;;;;;;5050607;28;20056;-79
2021/11/26 12:13:30;;;;;;;3.85;2.00;;;;;;;;;;5050356;28;20032;-80
2021/11/26 12:16:14;;;;;;;2.28;1.77;;;;;;;;;;5051889;28;20124;-80
2021/11/26 12:18:44;;;;;;;3.03;1.88;;;;;;;;;;5051854;28;20033;-81
2021/11/26 12:21:12;;;;;;;3.90;2.97;;;;;;;;;;5050565;28;20043;-80
2021/11/26 12:23:55;;;;;;;3.33;2.58;;;;;;;;;;5050992;28;20047;-78
2021/11/26 12:26:25;;;;;;;3.63;2.70;;;;;;;;;;5049168;28;20102;-80
2021/11/26 12:28:59;;;;;;;3.05;2.85;;;;;;;;;;5049861;28;20033;-80
2021/11/26 12:31:34;;;;;;;3.15;2.85;;;;;;;;;;5050367;28;20091;-79
2021/11/26 12:34:11;;;;;;;4.50;4.10;;;;;;;;;;5048386;28;20749;-81
2021/11/26 12:36:47;;;;;;;4.30;3.25;;;;;;;;;;5051540;28;20047;-80
2021/11/26 12:39:18;;;;;;;7.13;3.05;;;;;;;;;;5050779;28;20037;-79
2021/11/26 12:41:45;;;;;;;6.05;3.30;;;;;;;;;;5047887;28;20029;-80
2021/11/26 12:44:16;;;;;;;3.65;2.83;;;;;;;;;;5051056;28;20112;-80
2021/11/26 12:46:43;;;;;;;4.40;2.65;;;;;;;;;;5051411;28;20048;-81
2021/11/26 12:51:53;;;;;;;2.58;2.38;;;;;;;;;;5050804;28;20522;-81
2021/11/26 12:54:26;;;;;;;3.15;2.67;;;;;;;;;;5051082;28;20033;-80
2021/11/26 12:56:53;;;;;;;2.65;2.13;;;;;;;;;;5050490;28;20067;-81
2021/11/26 12:59:29;;;;;;;4.63;2.33;;;;;;;;;;5051396;28;20044;-80
2021/11/26 13:01:55;;;;;;;2.20;2.10;;;;;;;;;;5050978;28;20037;-80
2021/11/26 13:04:20;;;;;;;1.75;1.65;;;;;;;;;;5048054;28;20045;-82
2021/11/26 13:06:46;;;;;;;1.98;1.88;;;;;;;;;;5050808;28;20482;-82
2021/11/26 13:09:12;;;;;;;1.70;1.60;;;;;;;;;;5050606;28;20036;-81
2021/11/26 13:11:46;;;;;;;2.30;2.10;;;;;;;;;;5050660;28;20033;-81
2021/11/26 13:14:12;;;;;;;4.57;2.88;;;;;;;;;;5050357;28;20087;-82
2021/11/26 13:16:39;;;;;;;1.83;1.70;;;;;;;;;;5050440;28;20033;-81
2021/11/26 13:19:20;;;;;;;2.10;2.00;;;;;;;;;;5050108;28;20044;-80
2021/11/26 13:21:56;;;;;;;4.97;2.13;;;;;;;;;;5048510;28;20033;-81
2021/11/26 13:24:22;;;;;;;6.45;2.05;;;;;;;;;;5050902;28;20123;-81
2021/11/26 13:26:48;;;;;;;2.95;2.58;;;;;;;;;;5045767;28;20139;-80
2021/11/26 13:29:13;;;;;;;2.53;2.15;;;;;;;;;;5047940;28;20060;-81
2021/11/26 13:31:43;;;;;;;4.15;2.03;;;;;;;;;;5051286;28;20112;-81
2021/11/26 13:34:10;;;;;;;2.10;2.00;;;;;;;;;;5049884;28;20549;-81
2021/11/26 13:36:35;;;;;;;2.00;1.77;;;;;;;;;;5050709;28;20028;-81
2021/11/26 13:39:15;;;;;;;3.25;2.80;;;;;;;;;;5050760;28;20413;-81
2021/11/26 13:41:43;;;;;;;2.92;2.17;;;;;;;;;;5050106;28;20029;-82
2021/11/26 13:44:19;;;;;;;2.08;1.98;;;;;;;;;;5050975;28;20482;-81
2021/11/26 13:46:58;;;;;;;1.77;1.67;;;;;;;;;;5050732;28;20033;-81
2021/11/26 13:49:27;;;;;;;2.45;2.25;;;;;;;;;;5048407;28;20498;-80
2021/11/26 13:51:58;;;;;;;2.42;2.25;;;;;;;;;;5044853;28;20053;-81
2021/11/26 13:54:33;;;;;;;2.10;1.95;;;;;;;;;;5050704;28;20064;-81
2021/11/26 13:56:59;;;;;;;2.33;2.22;;;;;;;;;;5049950;28;20128;-81
2021/11/26 13:59:36;;;;;;;3.35;3.05;;;;;;;;;;5049601;28;20457;-84
2021/11/26 14:02:06;;;;;;;2.08;1.98;;;;;;;;;;5050391;28;20075;-80
2021/11/26 14:04:32;;;;;;;2.50;2.17;;;;;;;;;;5047923;28;20043;-79
2021/11/26 14:07:12;;;;;;;2.90;2.17;;;;;;;;;;5046707;28;20041;-82
2021/11/26 14:09:39;;;;;;;2.22;2.13;;;;;;;;;;5048026;28;20124;-82
2021/11/26 14:12:21;;;;;;;2.10;1.98;;;;;;;;;;5045867;28;20090;-82
2021/11/26 14:14:49;;;;;;;3.72;2.35;;;;;;;;;;5048315;28;20037;-86
2021/11/26 14:17:23;;;;;;;2.22;2.13;;;;;;;;;;5049838;28;20033;-82
2021/11/26 14:19:54;;;;;;;3.03;2.40;;;;;;;;;;5047400;28;20166;-83
2021/11/26 14:22:22;;;;;;;2.75;2.42;;;;;;;;;;5030517;28;20103;-83
2021/11/26 14:25:04;;;;;;;2.72;2.53;;;;;;;;;;5030026;28;20120;-82
2021/11/26 14:27:40;;;;;;;4.75;3.42;;;;;;;;;;5029216;28;20034;-81
2021/11/26 14:30:12;;;;;;;4.85;4.30;;;;;;;;;;5030673;28;20481;-81
2021/11/26 14:32:49;;;;;;;3.55;2.78;;;;;;;;;;5030351;28;20411;-81
2021/11/26 14:35:15;;;;;;;5.20;2.92;;;;;;;;;;5031144;28;20033;-81
2021/11/26 14:37:41;;;;;;;4.10;3.33;;;;;;;;;;5034228;28;20521;-81
2021/11/26 14:40:28;;;;;;;3.40;2.92;;;;;;;;;;5034160;28;20040;-80
2021/11/26 14:43:13;;;;;;;3.95;2.85;;;;;;;;;;5034212;28;20045;-81
2021/11/26 14:45:46;;;;;;;3.78;3.33;;;;;;;;;;5033086;28;20041;-80
2021/11/26 14:48:19;;;;;;;2.17;1.98;;;;;;;;;;5050248;28;20036;-80
2021/11/26 14:50:45;;;;;;;3.03;2.75;;;;;;;;;;5053848;28;20549;-82